Time;durP1;ratioP1;P1;durP2;ratioP2;P2;SDS_P1;SDS_P2;PMS_P1;PMS_P2;Temp;Humidity;BMP_temperature;BMP_pressure;BME280_temperature;BME280_humidity;BME280_pressure;Samples;Min_cycle;Max_cycle;Signal;HPM_P1;HPM_P2
2022/03/09 00:04:11;;;;;;;8.03;7.03;;;3.70;22.70;;;;;;10348244;28;20231;-74
2022/03/09 00:09:14;;;;;;;9.77;8.77;;;3.70;22.60;;;;;;10353853;28;20262;-74
2022/03/09 00:14:19;;;;;;;9.83;8.13;;;3.60;22.50;;;;;;10347992;28;20847;-73
2022/03/09 00:19:22;;;;;;;9.43;8.40;;;3.60;22.70;;;;;;10349000;28;21289;-73
2022/03/09 00:24:25;;;;;;;9.37;8.23;;;3.60;22.70;;;;;;10357524;28;20231;-74
2022/03/09 00:29:30;;;;;;;11.60;8.50;;;3.60;22.70;;;;;;10350267;28;20222;-74
2022/03/09 00:34:33;;;;;;;11.30;8.63;;;3.50;22.70;;;;;;10351098;28;20240;-73
2022/03/09 00:39:36;;;;;;;11.37;8.67;;;3.50;22.70;;;;;;10352100;28;20267;-74
2022/03/09 00:44:41;;;;;;;9.60;7.53;;;3.40;22.60;;;;;;10347836;28;20703;-73
2022/03/09 00:49:44;;;;;;;9.27;8.27;;;3.40;22.70;;;;;;10351417;28;20719;-74
2022/03/09 00:54:48;;;;;;;9.80;8.27;;;3.30;22.60;;;;;;10353636;28;20233;-73
2022/03/09 00:59:53;;;;;;;8.50;7.33;;;3.30;22.70;;;;;;10354909;28;20230;-73
2022/03/09 01:04:56;;;;;;;8.63;7.80;;;3.30;22.80;;;;;;10348053;28;20245;-74
2022/03/09 01:09:59;;;;;;;8.33;7.43;;;3.20;22.70;;;;;;10352450;28;20237;-75
2022/03/09 01:15:05;;;;;;;11.10;8.30;;;3.20;22.80;;;;;;10355639;28;20716;-74
2022/03/09 01:20:09;;;;;;;8.17;7.30;;;3.20;22.90;;;;;;10348850;28;20732;-73
2022/03/09 01:25:12;;;;;;;10.47;7.70;;;3.10;22.70;;;;;;10345110;28;20723;-73
2022/03/09 01:30:17;;;;;;;8.27;7.30;;;2.90;22.80;;;;;;10351518;28;20226;-73
2022/03/09 01:35:23;;;;;;;8.27;7.20;;;2.90;23.00;;;;;;10348408;28;20274;-73
2022/03/09 01:40:27;;;;;;;9.87;7.23;;;2.80;22.90;;;;;;10347590;28;20222;-73
2022/03/09 01:45:31;;;;;;;9.40;6.97;;;2.80;23.10;;;;;;10345124;28;20250;-73
2022/03/09 01:50:35;;;;;;;9.00;8.07;;;2.70;23.20;;;;;;10346019;28;20318;-73
2022/03/09 01:55:39;;;;;;;9.73;7.53;;;2.70;23.00;;;;;;10342529;28;20318;-74
2022/03/09 02:00:43;;;;;;;9.27;7.03;;;2.60;23.10;;;;;;10345636;28;20235;-73
2022/03/09 02:05:47;;;;;;;8.93;7.37;;;2.50;23.20;;;;;;10344205;28;20252;-73
2022/03/09 02:10:51;;;;;;;7.97;6.63;;;2.40;23.10;;;;;;10349768;28;20764;-73
2022/03/09 02:15:56;;;;;;;7.57;6.77;;;2.40;23.30;;;;;;10343270;28;20252;-74
2022/03/09 02:21:03;;;;;;;6.33;5.70;;;2.20;23.30;;;;;;10344501;28;20233;-73
2022/03/09 02:26:08;;;;;;;8.30;6.70;;;2.40;23.70;;;;;;10348358;28;20238;-73
2022/03/09 02:31:11;;;;;;;9.90;6.90;;;2.20;23.60;;;;;;10346039;28;20265;-74
2022/03/09 02:36:14;;;;;;;7.90;6.90;;;2.20;23.50;;;;;;10347176;28;20238;-72
2022/03/09 02:41:19;;;;;;;9.73;6.43;;;2.10;23.30;;;;;;10351262;28;20230;-73
2022/03/09 02:46:22;;;;;;;6.53;5.33;;;2.10;23.50;;;;;;10352594;28;20262;-73
2022/03/09 02:51:26;;;;;;;8.70;6.80;;;2.00;23.70;;;;;;10355862;28;20593;-74
2022/03/09 02:56:31;;;;;;;6.90;5.40;;;2.00;23.70;;;;;;10351209;28;20241;-73
2022/03/09 03:01:34;;;;;;;6.57;5.87;;;2.00;24.00;;;;;;10351123;28;20235;-73
2022/03/09 03:06:37;;;;;;;6.57;5.03;;;2.00;23.70;;;;;;10355864;28;20237;-73
2022/03/09 03:11:42;;;;;;;7.57;6.77;;;2.00;23.80;;;;;;10346661;28;20231;-73
2022/03/09 03:16:45;;;;;;;10.97;6.67;;;2.00;24.00;;;;;;10348577;28;20238;-73
2022/03/09 03:21:48;;;;;;;6.17;5.57;;;2.00;23.90;;;;;;10343374;28;20598;-74
2022/03/09 03:26:53;;;;;;;7.40;6.07;;;2.00;24.00;;;;;;10344657;28;20222;-73
2022/03/09 03:31:56;;;;;;;8.07;6.50;;;2.10;24.10;;;;;;10352769;28;20364;-73
2022/03/09 03:36:59;;;;;;;7.93;6.63;;;1.90;23.70;;;;;;10350349;28;20226;-73
2022/03/09 03:42:05;;;;;;;9.43;6.43;;;1.80;23.80;;;;;;10346674;28;21042;-73
2022/03/09 03:47:08;;;;;;;6.07;5.47;;;1.70;23.80;;;;;;10355576;28;20226;-73
2022/03/09 03:52:11;;;;;;;8.63;5.97;;;1.60;23.80;;;;;;10354631;28;20235;-73
2022/03/09 03:57:16;;;;;;;7.27;6.53;;;1.40;23.60;;;;;;10355638;28;20625;-73
2022/03/09 04:02:19;;;;;;;6.83;6.07;;;1.30;23.60;;;;;;10356203;28;20233;-73
2022/03/09 04:07:23;;;;;;;7.53;5.87;;;1.30;23.60;;;;;;10357122;28;20231;-73
2022/03/09 04:12:27;;;;;;;8.77;6.07;;;1.20;23.80;;;;;;10351385;28;20227;-73
2022/03/09 04:17:38;;;;;;;7.97;6.50;;;1.30;24.10;;;;;;10361629;28;20241;-73
2022/03/09 04:22:42;;;;;;;7.90;6.57;;;1.30;24.00;;;;;;10359958;28;20234;-73
2022/03/09 04:27:46;;;;;;;9.60;6.23;;;1.30;24.10;;;;;;10354205;28;20242;-73
2022/03/09 04:32:49;;;;;;;8.83;6.63;;;1.30;24.10;;;;;;10359226;28;20237;-73
2022/03/09 04:37:52;;;;;;;7.60;6.60;;;1.30;24.00;;;;;;10333101;28;20258;-74
2022/03/09 04:42:57;;;;;;;8.77;7.03;;;1.20;24.50;;;;;;10313402;28;20233;-73
2022/03/09 04:48:00;;;;;;;9.37;7.37;;;1.30;24.20;;;;;;10312541;28;20601;-72
2022/03/09 04:53:04;;;;;;;6.73;6.03;;;1.20;24.00;;;;;;10386838;22;20714;-72
2022/03/09 04:58:08;;;;;;;7.67;6.50;;;1.20;24.00;;;;;;10335291;28;20737;-72
2022/03/09 05:03:11;;;;;;;8.90;7.07;;;1.20;24.20;;;;;;10306157;28;20227;-72
2022/03/09 05:08:15;;;;;;;7.53;6.73;;;1.10;24.10;;;;;;10309311;28;20235;-72
2022/03/09 05:13:20;;;;;;;8.47;6.47;;;1.10;24.20;;;;;;10309262;28;20226;-72
2022/03/09 05:18:23;;;;;;;8.53;7.33;;;1.20;24.40;;;;;;10308513;28;20237;-72
2022/03/09 05:23:26;;;;;;;6.57;5.83;;;1.00;24.20;;;;;;10305892;28;20618;-72
2022/03/09 05:28:31;;;;;;;7.30;6.47;;;0.90;24.30;;;;;;10308007;28;20239;-71
2022/03/09 05:33:34;;;;;;;7.93;6.93;;;0.80;24.50;;;;;;10316745;28;20231;-71
2022/03/09 05:38:37;;;;;;;7.97;6.80;;;0.70;24.40;;;;;;10315590;28;20234;-70
2022/03/09 05:43:42;;;;;;;8.93;7.10;;;0.70;24.50;;;;;;10324429;28;20741;-71
2022/03/09 05:48:45;;;;;;;6.70;6.00;;;0.70;24.70;;;;;;10315939;28;20231;-70
2022/03/09 05:53:48;;;;;;;8.10;6.57;;;0.60;24.60;;;;;;10317283;28;20235;-70
2022/03/09 05:58:53;;;;;;;10.00;6.70;;;0.60;24.70;;;;;;10309016;28;20231;-70
2022/03/09 06:03:56;;;;;;;10.07;7.40;;;0.70;24.90;;;;;;10302009;28;20716;-70
2022/03/09 06:08:59;;;;;;;11.67;8.83;;;0.70;24.70;;;;;;10301934;28;20587;-70
2022/03/09 06:14:04;;;;;;;8.27;7.40;;;0.70;24.80;;;;;;10306630;28;20235;-69
2022/03/09 06:19:07;;;;;;;13.93;9.87;;;0.70;25.10;;;;;;10300643;28;20227;-71
2022/03/09 06:24:10;;;;;;;19.43;12.43;;;0.70;25.00;;;;;;10302847;28;20238;-71
2022/03/09 06:29:15;;;;;;;12.43;10.47;;;0.70;25.10;;;;;;10307901;28;20229;-71
2022/03/09 06:34:18;;;;;;;11.37;9.17;;;0.70;25.20;;;;;;10305825;28;20601;-71
2022/03/09 06:39:21;;;;;;;12.23;8.33;;;0.70;25.20;;;;;;10304213;28;20235;-71
2022/03/09 06:44:26;;;;;;;11.60;8.93;;;0.80;25.20;;;;;;10304921;28;20237;-71
2022/03/09 06:49:29;;;;;;;14.03;8.37;;;0.90;25.40;;;;;;10308076;28;20774;-71
2022/03/09 06:54:32;;;;;;;23.37;16.77;;;0.90;25.40;;;;;;10301340;28;20712;-71
2022/03/09 06:59:37;;;;;;;30.17;19.83;;;1.00;25.60;;;;;;10304673;28;20243;-71
2022/03/09 07:04:40;;;;;;;20.93;14.90;;;1.10;25.80;;;;;;10303709;28;20761;-71
2022/03/09 07:09:44;;;;;;;12.83;10.37;;;1.10;25.60;;;;;;10307687;28;20496;-70
2022/03/09 07:14:48;;;;;;;11.57;8.47;;;1.20;25.70;;;;;;10303404;28;20235;-70
2022/03/09 07:19:52;;;;;;;8.70;7.47;;;1.20;25.90;;;;;;10311186;28;20234;-71
2022/03/09 07:24:55;;;;;;;8.27;6.97;;;1.30;25.80;;;;;;10309886;28;20226;-71
2022/03/09 07:30:00;;;;;;;8.73;7.60;;;1.40;25.80;;;;;;10311912;28;20219;-71
2022/03/09 07:35:03;;;;;;;10.47;7.70;;;1.50;26.20;;;;;;10309046;28;20223;-71
2022/03/09 07:40:08;;;;;;;7.73;6.43;;;1.60;26.20;;;;;;10310281;28;20223;-71
2022/03/09 07:45:13;;;;;;;7.60;6.80;;;1.70;26.50;;;;;;10312431;28;20737;-71
2022/03/09 07:50:16;;;;;;;7.50;6.70;;;1.80;26.60;;;;;;10311926;28;20235;-70
2022/03/09 07:55:20;;;;;;;8.53;6.60;;;2.00;26.80;;;;;;10322146;28;20227;-70
2022/03/09 08:00:24;;;;;;;6.80;6.10;;;2.20;26.90;;;;;;10326501;28;20227;-69
2022/03/09 08:05:27;;;;;;;6.90;6.20;;;2.40;26.90;;;;;;10321265;28;20242;-70
2022/03/09 08:10:30;;;;;;;6.50;5.87;;;2.60;27.00;;;;;;10319072;28;20235;-70
2022/03/09 08:15:37;;;;;;;8.57;5.63;;;2.90;27.00;;;;;;10314348;28;20223;-70
2022/03/09 08:20:40;;;;;;;7.70;6.40;;;3.20;27.20;;;;;;10320804;28;20227;-71
2022/03/09 08:25:43;;;;;;;6.77;6.17;;;3.60;27.30;;;;;;10312303;28;20234;-70
2022/03/09 08:30:49;;;;;;;7.77;6.87;;;3.90;27.10;;;;;;10309674;28;20280;-70
2022/03/09 08:35:53;;;;;;;8.03;7.23;;;4.40;27.80;;;;;;10311315;28;20603;-70
2022/03/09 08:40:56;;;;;;;7.93;7.20;;;4.80;27.00;;;;;;10307374;28;20238;-70
2022/03/09 08:46:01;;;;;;;7.73;6.97;;;5.20;26.90;;;;;;10310014;28;20226;-70
2022/03/09 08:51:05;;;;;;;8.17;7.27;;;5.50;26.90;;;;;;10311679;28;20231;-70
2022/03/09 08:56:10;;;;;;;9.23;6.93;;;5.90;26.50;;;;;;10306812;28;20255;-70
2022/03/09 09:01:14;;;;;;;7.30;6.60;;;6.30;26.70;;;;;;10308353;28;20558;-70
2022/03/09 09:06:37;;;;;;;7.07;6.33;;;6.70;26.90;;;;;;10304432;28;20240;-70
2022/03/09 09:11:41;;;;;;;6.53;5.93;;;7.10;26.50;;;;;;10307579;28;20223;-70
2022/03/09 09:16:45;;;;;;;7.80;5.87;;;7.40;26.10;;;;;;10303641;28;20700;-71
2022/03/09 09:21:49;;;;;;;7.20;5.97;;;7.70;25.90;;;;;;10300867;28;20230;-73
2022/03/09 09:26:52;;;;;;;6.20;5.60;;;8.00;25.80;;;;;;10298377;28;20227;-73
2022/03/09 09:32:16;;;;;;;6.73;6.07;;;8.40;25.10;;;;;;10298791;28;20597;-73
2022/03/09 09:37:21;;;;;;;8.87;5.93;;;8.70;24.60;;;;;;10297880;28;20242;-73
2022/03/09 09:42:30;;;;;;;6.73;6.13;;;8.90;24.70;;;;;;10298281;28;20235;-73
2022/03/09 09:47:55;;;;;;;6.83;6.13;;;9.20;24.40;;;;;;10298326;28;20222;-73
2022/03/09 09:52:58;;;;;;;6.40;5.80;;;9.50;24.30;;;;;;10297678;28;20223;-73
2022/03/09 09:58:02;;;;;;;7.23;6.33;;;9.70;24.40;;;;;;10298455;28;20239;-74
2022/03/09 10:03:06;;;;;;;6.33;5.73;;;10.00;23.50;;;;;;10297552;28;20612;-73
2022/03/09 10:08:16;;;;;;;6.73;6.00;;;10.30;23.30;;;;;;10301954;28;20595;-73
2022/03/09 10:13:22;;;;;;;6.97;6.03;;;10.50;23.00;;;;;;10296635;28;20231;-74
2022/03/09 10:18:26;;;;;;;6.40;5.80;;;10.70;23.00;;;;;;10295826;28;20603;-73
2022/03/09 10:23:33;;;;;;;6.63;5.97;;;10.90;22.70;;;;;;10296409;28;20709;-73
2022/03/09 10:28:41;;;;;;;7.97;5.90;;;11.10;22.70;;;;;;10297972;28;20239;-74
2022/03/09 10:33:45;;;;;;;6.20;5.60;;;11.30;22.50;;;;;;10294994;28;20232;-73
2022/03/09 10:38:49;;;;;;;6.53;5.57;;;11.40;22.40;;;;;;10293396;28;20236;-71
2022/03/09 10:43:53;;;;;;;7.13;5.77;;;11.60;22.30;;;;;;10299995;28;20223;-73
2022/03/09 10:49:00;;;;;;;6.00;5.50;;;11.80;21.90;;;;;;10297924;28;20232;-73
2022/03/09 10:54:06;;;;;;;5.90;5.30;;;11.90;21.10;;;;;;10298263;28;20225;-73
2022/03/09 10:59:20;;;;;;;5.57;5.07;;;12.10;21.60;;;;;;10293936;28;20230;-71
2022/03/09 11:04:25;;;;;;;6.03;5.43;;;12.30;21.20;;;;;;10300115;28;20235;-71
2022/03/09 11:09:28;;;;;;;6.27;5.43;;;12.40;21.30;;;;;;10304024;28;20915;-70
2022/03/09 11:14:33;;;;;;;5.90;5.30;;;12.60;21.10;;;;;;10300771;28;20235;-71
2022/03/09 11:19:39;;;;;;;5.37;4.87;;;12.70;20.90;;;;;;10303456;28;20750;-71
2022/03/09 11:24:42;;;;;;;6.47;5.87;;;12.90;20.50;;;;;;10306802;28;20238;-71
2022/03/09 11:29:49;;;;;;;5.37;4.87;;;13.00;20.60;;;;;;10301533;28;20321;-71
2022/03/09 11:34:56;;;;;;;5.50;5.00;;;13.10;20.60;;;;;;10302907;28;20223;-68
2022/03/09 11:40:13;;;;;;;6.23;4.80;;;13.30;20.40;;;;;;10306169;28;20281;-68
2022/03/09 11:45:30;;;;;;;5.30;4.87;;;13.40;18.90;;;;;;10303538;28;20591;-68
2022/03/09 11:50:59;;;;;;;5.50;5.00;;;13.50;19.10;;;;;;10295155;28;20637;-68
2022/03/09 11:56:33;;;;;;;6.33;5.23;;;13.50;19.30;;;;;;10294807;28;20231;-68
2022/03/09 12:02:24;;;;;;;6.07;5.47;;;13.60;18.80;;;;;;10297826;28;20723;-68
2022/03/09 12:07:47;;;;;;;6.50;5.90;;;13.60;18.50;;;;;;10300199;28;20235;-68
2022/03/09 12:13:11;;;;;;;6.63;5.97;;;13.70;19.00;;;;;;10304736;28;20741;-68
2022/03/09 12:18:33;;;;;;;7.13;5.97;;;13.80;18.10;;;;;;10305792;28;21246;-68
2022/03/09 12:24:29;;;;;;;6.60;6.00;;;13.70;18.40;;;;;;10304648;28;20226;-68
2022/03/09 12:29:40;;;;;;;7.40;6.20;;;13.80;18.50;;;;;;10301656;28;21186;-68
2022/03/09 12:34:45;;;;;;;6.50;5.90;;;13.90;18.40;;;;;;10303594;28;20326;-68
2022/03/09 12:39:51;;;;;;;6.97;6.33;;;14.00;18.90;;;;;;10304686;28;20231;-68
2022/03/09 12:44:58;;;;;;;6.27;5.67;;;14.00;18.80;;;;;;10306587;28;20239;-68
2022/03/09 12:50:01;;;;;;;6.30;5.70;;;14.10;18.70;;;;;;10301444;28;20231;-68
2022/03/09 12:55:05;;;;;;;6.90;6.17;;;14.10;19.40;;;;;;10310027;28;20219;-68
2022/03/09 13:00:13;;;;;;;4.70;4.30;;;14.20;19.20;;;;;;10308974;28;20235;-68
2022/03/09 13:05:19;;;;;;;5.20;4.70;;;14.30;18.40;;;;;;10306435;28;20229;-71
2022/03/09 13:10:23;;;;;;;4.93;4.47;;;14.30;18.10;;;;;;10305105;28;20242;-71
2022/03/09 13:15:39;;;;;;;4.57;3.97;;;14.40;18.50;;;;;;10300773;28;20223;-68
2022/03/09 13:20:47;;;;;;;3.73;3.43;;;14.40;17.30;;;;;;10302696;28;20801;-68
2022/03/09 13:25:50;;;;;;;5.77;5.07;;;14.40;17.50;;;;;;10296800;28;20241;-68
2022/03/09 13:30:55;;;;;;;4.50;4.10;;;14.50;18.20;;;;;;10299369;28;20234;-68
2022/03/09 13:36:00;;;;;;;4.07;3.70;;;14.50;18.00;;;;;;10295008;28;20219;-68
2022/03/09 13:41:05;;;;;;;4.60;3.60;;;14.50;18.20;;;;;;10290525;28;20228;-71
2022/03/09 13:46:17;;;;;;;3.80;3.50;;;14.50;18.00;;;;;;10292157;28;20223;-68
2022/03/09 13:51:32;;;;;;;4.00;3.60;;;14.60;17.20;;;;;;10294067;28;20572;-68
2022/03/09 13:56:37;;;;;;;4.00;3.60;;;14.70;17.20;;;;;;10290493;28;20242;-69
2022/03/09 14:01:41;;;;;;;3.80;3.50;;;14.70;17.80;;;;;;10294199;28;20230;-69
2022/03/09 14:06:55;;;;;;;3.70;3.40;;;14.70;17.60;;;;;;10306290;28;20227;-72
2022/03/09 14:11:58;;;;;;;3.70;3.40;;;14.80;16.80;;;;;;10309101;28;20284;-69
2022/03/09 14:17:04;;;;;;;3.50;3.20;;;14.80;17.70;;;;;;10303671;28;20619;-69
2022/03/09 14:22:07;;;;;;;3.33;3.07;;;14.80;17.50;;;;;;10306152;28;20278;-70
2022/03/09 14:27:10;;;;;;;3.57;3.37;;;14.80;17.40;;;;;;10305184;28;20258;-69
2022/03/09 14:32:17;;;;;;;3.60;3.30;;;14.80;17.20;;;;;;10303452;28;20774;-68
2022/03/09 14:37:20;;;;;;;3.97;3.30;;;14.80;17.20;;;;;;10303701;28;20738;-68
2022/03/09 14:42:23;;;;;;;4.40;4.00;;;14.80;17.40;;;;;;10308524;28;20231;-68
2022/03/09 14:47:27;;;;;;;4.07;3.67;;;14.90;17.60;;;;;;10300073;28;20242;-68
2022/03/09 14:52:30;;;;;;;4.30;3.63;;;14.90;17.10;;;;;;10301386;28;20253;-68
2022/03/09 14:57:35;;;;;;;4.20;3.80;;;15.00;17.50;;;;;;10303671;28;20231;-68
2022/03/09 15:02:40;;;;;;;4.37;4.07;;;14.90;17.30;;;;;;10306474;28;20227;-68
2022/03/09 15:07:44;;;;;;;4.50;4.10;;;15.00;17.00;;;;;;10297591;28;20235;-68
2022/03/09 15:12:48;;;;;;;4.53;4.13;;;14.90;17.30;;;;;;10302257;28;20237;-68
2022/03/09 15:17:52;;;;;;;4.10;3.80;;;14.90;17.20;;;;;;10301525;28;20286;-68
2022/03/09 15:22:56;;;;;;;4.40;4.00;;;15.00;17.20;;;;;;10298765;28;20298;-68
2022/03/09 15:28:07;;;;;;;4.17;3.87;;;15.00;17.20;;;;;;10297638;28;20247;-68
2022/03/09 15:33:11;;;;;;;4.00;3.60;;;15.00;17.10;;;;;;10302616;28;20223;-69
2022/03/09 15:38:15;;;;;;;4.83;4.17;;;15.00;16.80;;;;;;10311748;28;20230;-70
2022/03/09 15:43:18;;;;;;;4.23;3.93;;;15.00;17.00;;;;;;10313893;28;20726;-70
2022/03/09 15:48:22;;;;;;;3.87;3.50;;;14.90;16.90;;;;;;10310830;28;20599;-70
2022/03/09 15:53:29;;;;;;;4.03;3.73;;;14.90;16.80;;;;;;10313150;28;20877;-70
2022/03/09 15:58:32;;;;;;;4.30;3.90;;;14.90;17.00;;;;;;10312731;28;20237;-70
2022/03/09 16:03:37;;;;;;;4.43;4.10;;;14.90;17.00;;;;;;10311615;28;20601;-70
2022/03/09 16:08:40;;;;;;;4.47;4.07;;;14.80;16.80;;;;;;10312779;28;20922;-70
2022/03/09 16:13:43;;;;;;;5.03;3.70;;;14.80;17.00;;;;;;10311168;28;21017;-70
2022/03/09 16:18:49;;;;;;;5.10;4.47;;;14.80;18.40;;;;;;10311488;28;20230;-69
2022/03/09 16:23:53;;;;;;;6.80;4.93;;;14.80;17.10;;;;;;10308732;28;21524;-69
2022/03/09 16:28:56;;;;;;;4.73;4.27;;;14.80;17.20;;;;;;10312185;28;20681;-70
2022/03/09 16:34:01;;;;;;;6.87;4.90;;;14.80;17.20;;;;;;10312589;28;20234;-71
2022/03/09 16:39:04;;;;;;;5.50;5.00;;;14.70;17.30;;;;;;10316515;28;20223;-71
2022/03/09 16:44:08;;;;;;;5.50;4.80;;;14.70;17.40;;;;;;10314336;28;20245;-70
2022/03/09 16:49:13;;;;;;;5.50;5.00;;;14.60;17.30;;;;;;10314288;28;20227;-70
2022/03/09 16:54:16;;;;;;;5.33;4.70;;;14.50;17.20;;;;;;10313689;28;20227;-73
2022/03/09 16:59:19;;;;;;;6.40;4.83;;;14.40;17.30;;;;;;10312881;28;20246;-70
2022/03/09 17:04:24;;;;;;;4.97;4.53;;;14.30;17.40;;;;;;10312823;28;20234;-71
2022/03/09 17:09:27;;;;;;;5.90;5.40;;;14.20;17.40;;;;;;10306998;28;20618;-70
2022/03/09 17:14:30;;;;;;;6.20;5.70;;;14.10;17.50;;;;;;10308567;28;20233;-70
2022/03/09 17:19:35;;;;;;;6.03;5.53;;;13.90;17.40;;;;;;10303571;28;20227;-70
2022/03/09 17:24:38;;;;;;;6.10;5.50;;;13.80;17.30;;;;;;10306179;28;20238;-70
2022/03/09 17:29:42;;;;;;;15.87;14.17;;;13.60;17.60;;;;;;10307435;28;20249;-70
2022/03/09 17:34:48;;;;;;;13.40;12.20;;;13.50;17.40;;;;;;10300933;28;20235;-70
2022/03/09 17:39:52;;;;;;;11.33;10.23;;;13.40;17.40;;;;;;10303237;28;20234;-70
2022/03/09 17:44:55;;;;;;;8.23;7.43;;;13.20;17.50;;;;;;10303932;28;20760;-70
2022/03/09 17:49:59;;;;;;;9.03;8.13;;;13.10;17.60;;;;;;10305412;28;20830;-70
2022/03/09 17:55:04;;;;;;;15.40;12.57;;;12.90;17.60;;;;;;10303748;28;20344;-70
2022/03/09 18:00:09;;;;;;;19.20;17.27;;;12.80;17.70;;;;;;10307181;28;20235;-70
2022/03/09 18:05:14;;;;;;;16.63;13.70;;;12.60;17.60;;;;;;10309735;28;20223;-70
2022/03/09 18:10:18;;;;;;;13.37;11.97;;;12.50;17.60;;;;;;10308721;28;20234;-70
2022/03/09 18:15:22;;;;;;;12.30;10.97;;;12.30;17.70;;;;;;10308829;28;20235;-71
2022/03/09 18:20:26;;;;;;;14.50;12.03;;;12.20;17.80;;;;;;10311311;28;20235;-70
2022/03/09 18:25:30;;;;;;;14.57;13.00;;;12.00;17.80;;;;;;10304692;28;20227;-70
2022/03/09 18:30:33;;;;;;;18.20;15.97;;;11.90;17.80;;;;;;10304079;28;20737;-73
2022/03/09 18:35:37;;;;;;;30.43;20.83;;;11.70;17.70;;;;;;10304934;28;20227;-73
2022/03/09 18:40:41;;;;;;;27.17;19.97;;;11.60;17.70;;;;;;10308465;28;20235;-73
2022/03/09 18:45:44;;;;;;;20.00;16.77;;;11.30;17.80;;;;;;10302495;28;20234;-73
2022/03/09 18:50:48;;;;;;;21.27;15.50;;;11.10;18.00;;;;;;10302017;28;20230;-72
2022/03/09 18:55:52;;;;;;;28.93;21.63;;;11.00;18.10;;;;;;10301912;28;20227;-71
2022/03/09 19:00:55;;;;;;;22.00;19.63;;;10.80;18.10;;;;;;10305711;28;20223;-71
2022/03/09 19:06:00;;;;;;;18.77;16.63;;;10.60;18.00;;;;;;10300558;28;20220;-71
2022/03/09 19:11:03;;;;;;;15.93;13.90;;;10.30;18.10;;;;;;10305872;28;20227;-71
2022/03/09 19:16:06;;;;;;;12.30;11.10;;;10.10;18.40;;;;;;10308673;28;20747;-71
2022/03/09 19:21:11;;;;;;;13.10;11.80;;;9.90;19.20;;;;;;10300602;28;20727;-71
2022/03/09 19:26:14;;;;;;;12.77;11.20;;;9.80;19.10;;;;;;10304456;28;20234;-71
2022/03/09 19:31:18;;;;;;;14.80;13.23;;;9.70;19.10;;;;;;10302055;28;20229;-71
2022/03/09 19:36:22;;;;;;;11.93;10.70;;;9.70;19.10;;;;;;10300292;28;20723;-70
2022/03/09 19:41:27;;;;;;;12.33;11.13;;;9.60;19.10;;;;;;10305532;28;20657;-70
2022/03/09 19:46:30;;;;;;;12.53;11.23;;;9.50;19.00;;;;;;10295591;28;20296;-72
2022/03/09 19:51:35;;;;;;;16.73;13.50;;;9.40;19.20;;;;;;10292089;28;20837;-70
2022/03/09 19:56:38;;;;;;;14.17;12.70;;;9.30;19.20;;;;;;10299432;28;20771;-70
2022/03/09 20:01:42;;;;;;;16.07;13.47;;;9.10;19.00;;;;;;10293367;28;20241;-71
2022/03/09 20:06:48;;;;;;;10.80;9.70;;;8.80;19.20;;;;;;10294316;28;20872;-71
2022/03/09 20:11:52;;;;;;;16.10;12.07;;;8.60;19.50;;;;;;10293733;28;20219;-71
2022/03/09 20:16:55;;;;;;;13.53;11.07;;;8.40;19.70;;;;;;10294843;28;20608;-71
2022/03/09 20:22:00;;;;;;;13.93;12.20;;;8.30;19.80;;;;;;10293407;28;20245;-71
2022/03/09 20:27:03;;;;;;;14.53;12.33;;;8.30;20.00;;;;;;10293169;28;20233;-71
2022/03/09 20:32:07;;;;;;;11.40;10.30;;;8.20;20.00;;;;;;10296471;28;20293;-70
2022/03/09 20:37:11;;;;;;;12.53;11.17;;;8.10;20.10;;;;;;10292474;28;20339;-70
2022/03/09 20:42:15;;;;;;;17.33;12.43;;;8.10;20.30;;;;;;10294392;28;20532;-69
2022/03/09 20:47:18;;;;;;;15.53;12.07;;;8.00;20.20;;;;;;10291572;28;20223;-70
2022/03/09 20:52:23;;;;;;;13.70;12.07;;;7.90;20.20;;;;;;10291930;28;21705;-71
2022/03/09 20:57:26;;;;;;;13.53;11.33;;;7.70;20.30;;;;;;10295442;28;20318;-71
2022/03/09 21:02:29;;;;;;;13.77;11.13;;;7.60;20.40;;;;;;10294158;28;20726;-71
2022/03/09 21:07:38;;;;;;;13.43;11.60;;;7.50;20.40;;;;;;10289521;28;20600;-71
2022/03/09 21:12:42;;;;;;;13.63;11.67;;;7.30;20.50;;;;;;10291143;28;20227;-71
2022/03/09 21:17:45;;;;;;;14.73;11.93;;;7.20;20.50;;;;;;10294030;28;20228;-71
2022/03/09 21:22:49;;;;;;;12.83;11.20;;;7.00;20.60;;;;;;10293197;28;20241;-73
2022/03/09 21:27:53;;;;;;;12.80;11.43;;;6.80;20.80;;;;;;10294045;28;20237;-73
2022/03/09 21:32:58;;;;;;;11.53;10.33;;;6.60;20.90;;;;;;10299935;28;20227;-73
2022/03/09 21:38:03;;;;;;;16.80;14.07;;;6.50;21.20;;;;;;10295611;28;20226;-72
2022/03/09 21:43:11;;;;;;;20.30;15.23;;;6.50;22.00;;;;;;10300054;28;20513;-73
2022/03/09 21:48:14;;;;;;;19.53;12.33;;;6.50;21.60;;;;;;10302427;28;20232;-73
2022/03/09 21:53:21;;;;;;;13.73;10.23;;;6.50;21.30;;;;;;10295838;28;20648;-73
2022/03/09 21:58:24;;;;;;;14.73;10.77;;;6.60;21.50;;;;;;10295584;28;20713;-70
2022/03/09 22:03:29;;;;;;;13.47;10.90;;;6.60;21.30;;;;;;10293709;28;20241;-70
2022/03/09 22:08:37;;;;;;;13.13;10.40;;;6.40;21.00;;;;;;10295640;28;20223;-70
2022/03/09 22:13:41;;;;;;;11.57;10.07;;;6.20;21.30;;;;;;10298476;28;20255;-70
2022/03/09 22:18:44;;;;;;;16.80;12.77;;;6.10;21.40;;;;;;10295720;28;20237;-70
2022/03/09 22:23:49;;;;;;;16.20;14.23;;;6.00;21.60;;;;;;10304272;28;20576;-73
2022/03/09 22:28:52;;;;;;;16.00;13.70;;;6.00;21.70;;;;;;10304103;28;20737;-73
2022/03/09 22:33:55;;;;;;;19.83;13.70;;;5.90;21.60;;;;;;10304434;28;20223;-71
2022/03/09 22:39:01;;;;;;;17.40;14.13;;;5.90;21.60;;;;;;10303449;28;20231;-73
2022/03/09 22:44:05;;;;;;;15.13;13.33;;;5.90;21.90;;;;;;10300224;28;20578;-73
2022/03/09 22:49:08;;;;;;;14.73;12.53;;;5.90;21.60;;;;;;10299851;28;20242;-70
2022/03/09 22:54:13;;;;;;;13.60;12.00;;;5.50;21.50;;;;;;10293250;28;20231;-69
2022/03/09 22:59:18;;;;;;;15.23;12.70;;;5.60;22.00;;;;;;10297920;28;20242;-73
2022/03/09 23:04:21;;;;;;;15.90;13.53;;;5.60;21.90;;;;;;10295831;28;20226;-73
2022/03/09 23:09:26;;;;;;;16.47;12.60;;;5.50;21.90;;;;;;10304626;28;20333;-71
2022/03/09 23:14:29;;;;;;;15.93;10.57;;;5.40;22.00;;;;;;10301607;28;20664;-71
2022/03/09 23:19:32;;;;;;;20.40;15.60;;;5.40;22.00;;;;;;10297919;28;20851;-71
2022/03/09 23:24:37;;;;;;;23.93;16.33;;;5.40;22.20;;;;;;10302505;28;20235;-70
2022/03/09 23:29:40;;;;;;;14.83;11.60;;;5.30;22.30;;;;;;10294416;28;20227;-70
2022/03/09 23:34:44;;;;;;;11.77;10.47;;;5.30;22.20;;;;;;10300247;28;20232;-69
2022/03/09 23:39:48;;;;;;;12.10;9.90;;;5.30;22.20;;;;;;10299817;28;20492;-70
2022/03/09 23:44:52;;;;;;;9.10;8.13;;;5.30;22.40;;;;;;10304268;28;20242;-70
2022/03/09 23:49:55;;;;;;;10.73;9.20;;;5.20;22.30;;;;;;10299652;28;20240;-70
2022/03/09 23:54:59;;;;;;;11.70;9.67;;;5.20;22.30;;;;;;10294709;28;20246;-69
